createdAt,value
2023-05-10T00:01:04.564Z,21.43
2023-05-10T00:03:31.239Z,19.33
2023-05-10T00:05:58.925Z,21.60
2023-05-10T00:08:25.761Z,18.30
2023-05-10T00:10:52.849Z,22.33
2023-05-10T00:13:19.733Z,20.73
2023-05-10T00:15:46.366Z,23.17
2023-05-10T00:18:13.076Z,21.20
2023-05-10T00:20:39.720Z,21.43
2023-05-10T00:23:06.336Z,21.30
2023-05-10T00:25:33.017Z,23.00
2023-05-10T00:27:59.681Z,21.87
2023-05-10T00:30:26.632Z,21.93
2023-05-10T00:32:53.231Z,23.37
2023-05-10T00:35:19.892Z,20.37
2023-05-10T00:37:46.465Z,23.83
2023-05-10T00:40:13.249Z,23.40
2023-05-10T00:42:41.313Z,25.67
2023-05-10T00:45:08.298Z,24.63
2023-05-10T00:47:36.161Z,23.37
2023-05-10T00:50:02.973Z,24.90
2023-05-10T00:52:30.440Z,23.60
2023-05-10T00:54:59.287Z,24.13
2023-05-10T00:57:26.037Z,27.37
2023-05-10T00:59:52.871Z,25.60
2023-05-10T01:02:19.564Z,25.90
2023-05-10T01:04:46.281Z,24.47
2023-05-10T01:07:12.866Z,25.90
2023-05-10T01:09:39.537Z,26.07
2023-05-10T01:12:07.989Z,27.63
2023-05-10T01:14:35.527Z,26.87
2023-05-10T01:17:02.452Z,21.43
2023-05-10T01:19:30.593Z,24.30
2023-05-10T01:22:24.660Z,22.00
2023-05-10T01:24:54.404Z,22.73
2023-05-10T01:27:28.534Z,18.30
2023-05-10T01:30:16.157Z,19.43
2023-05-10T01:32:43.068Z,18.73
2023-05-10T01:35:22.066Z,19.20
2023-05-10T01:38:01.572Z,17.80
2023-05-10T01:40:33.504Z,17.57
2023-05-10T01:43:04.838Z,17.17
2023-05-10T01:45:40.564Z,17.00
2023-05-10T01:48:08.487Z,17.83
2023-05-10T01:50:38.657Z,17.97
2023-05-10T01:53:08.027Z,20.47
2023-05-10T01:55:36.575Z,18.13
2023-05-10T01:58:05.740Z,19.40
2023-05-10T02:00:32.872Z,19.43
2023-05-10T02:03:00.479Z,20.80
2023-05-10T02:05:28.314Z,22.70
2023-05-10T02:07:55.183Z,22.67
2023-05-10T02:10:21.904Z,25.87
2023-05-10T02:12:49.491Z,26.90
2023-05-10T02:15:19.529Z,27.60
2023-05-10T02:17:47.634Z,29.10
2023-05-10T02:20:15.403Z,26.00
2023-05-10T02:22:42.759Z,28.57
2023-05-10T02:25:10.270Z,29.60
2023-05-10T02:27:38.143Z,30.50
2023-05-10T02:30:06.159Z,28.37
2023-05-10T02:32:33.924Z,28.80
2023-05-10T02:35:01.408Z,32.30
2023-05-10T02:37:28.714Z,31.97
2023-05-10T02:39:56.294Z,30.53
2023-05-10T02:42:25.182Z,32.67
2023-05-10T02:44:55.758Z,33.43
2023-05-10T02:47:22.500Z,29.97
2023-05-10T02:49:49.274Z,32.80
2023-05-10T02:52:20.465Z,33.57
2023-05-10T02:54:51.293Z,31.93
2023-05-10T02:57:21.038Z,31.50
2023-05-10T02:59:48.946Z,31.20
2023-05-10T03:02:15.756Z,29.67
2023-05-10T03:04:42.566Z,30.90
2023-05-10T03:07:09.517Z,29.40
2023-05-10T03:09:36.620Z,31.80
2023-05-10T03:12:16.699Z,28.03
2023-05-10T03:14:46.612Z,25.90
2023-05-10T03:17:36.211Z,25.60
2023-05-10T03:20:10.910Z,24.13
2023-05-10T03:22:39.377Z,22.57
2023-05-10T03:25:07.229Z,22.67
2023-05-10T03:27:36.205Z,23.27
2023-05-10T03:30:03.351Z,22.33
2023-05-10T03:32:35.414Z,21.40
2023-05-10T03:35:03.194Z,21.63
2023-05-10T03:37:29.857Z,21.00
2023-05-10T03:39:56.390Z,19.63
2023-05-10T03:42:23.214Z,22.03
2023-05-10T03:44:50.844Z,22.07
2023-05-10T03:47:17.589Z,22.77
2023-05-10T03:49:44.156Z,22.40
2023-05-10T03:52:12.960Z,21.93
2023-05-10T03:54:39.444Z,23.57
2023-05-10T03:57:06.101Z,23.63
2023-05-10T03:59:32.928Z,20.50
2023-05-10T04:01:59.571Z,21.20
2023-05-10T04:04:26.070Z,22.20
2023-05-10T04:06:52.668Z,21.37
2023-05-10T04:09:19.690Z,22.10
2023-05-10T04:11:46.261Z,21.67
2023-05-10T04:14:12.852Z,22.80
2023-05-10T04:16:39.443Z,20.97
2023-05-10T04:19:05.986Z,23.13
2023-05-10T04:21:32.557Z,24.37
2023-05-10T04:23:59.093Z,24.00
2023-05-10T04:26:26.794Z,25.20
2023-05-10T04:28:53.378Z,22.40
2023-05-10T04:31:20.096Z,25.13
2023-05-10T04:33:46.900Z,26.37
2023-05-10T04:36:13.541Z,25.73
2023-05-10T04:38:40.159Z,26.27
2023-05-10T04:41:09.921Z,25.80
2023-05-10T04:43:37.112Z,24.83
2023-05-10T04:46:04.165Z,26.33
2023-05-10T04:48:30.762Z,25.90
2023-05-10T04:50:57.382Z,25.50
2023-05-10T04:53:23.899Z,26.07
2023-05-10T04:55:50.455Z,26.33
2023-05-10T04:58:17.070Z,24.30
2023-05-10T05:00:43.662Z,27.00
2023-05-10T05:03:10.722Z,22.53
2023-05-10T05:05:37.393Z,22.97
2023-05-10T05:08:04.155Z,23.03
2023-05-10T05:10:30.901Z,25.17
2023-05-10T05:12:57.461Z,23.87
2023-05-10T05:15:24.422Z,25.97
2023-05-10T05:17:50.981Z,24.70
2023-05-10T05:20:18.310Z,26.03
2023-05-10T05:22:44.904Z,27.73
2023-05-10T05:25:12.616Z,26.70
2023-05-10T05:27:39.311Z,29.17
2023-05-10T05:30:06.373Z,28.47
2023-05-10T05:32:32.930Z,28.97
2023-05-10T05:34:59.529Z,29.40
2023-05-10T05:37:26.090Z,30.67
2023-05-10T05:39:52.704Z,32.17
2023-05-10T05:42:19.882Z,32.10
2023-05-10T05:44:46.567Z,30.90
2023-05-10T05:47:13.111Z,34.77
2023-05-10T05:49:40.297Z,32.23
2023-05-10T05:52:06.854Z,33.70
2023-05-10T05:54:33.427Z,30.87
2023-05-10T05:57:01.336Z,30.80
2023-05-10T05:59:28.292Z,31.90
2023-05-10T06:01:54.918Z,30.50
2023-05-10T06:04:21.636Z,31.27
2023-05-10T06:06:48.271Z,32.70
2023-05-10T06:09:14.967Z,30.27
2023-05-10T06:11:41.674Z,29.87
2023-05-10T06:14:09.344Z,30.13
2023-05-10T06:16:36.071Z,29.40
2023-05-10T06:19:03.255Z,30.47
2023-05-10T06:21:29.791Z,31.73
2023-05-10T06:23:56.333Z,30.17
2023-05-10T06:26:22.873Z,29.47
2023-05-10T06:28:49.445Z,29.83
2023-05-10T06:31:16.982Z,28.23
2023-05-10T06:33:43.604Z,28.73
2023-05-10T06:36:10.300Z,30.40
2023-05-10T06:38:36.976Z,30.63
2023-05-10T06:41:03.543Z,31.70
2023-05-10T06:43:30.111Z,31.20
2023-05-10T06:45:56.871Z,30.87
2023-05-10T06:48:23.529Z,28.90
2023-05-10T06:50:50.184Z,29.90
2023-05-10T06:53:16.687Z,31.73
2023-05-10T06:55:43.251Z,35.20
2023-05-10T06:58:09.803Z,32.67
2023-05-10T07:00:40.141Z,31.97
2023-05-10T07:03:07.198Z,29.10
2023-05-10T07:05:33.988Z,28.03
2023-05-10T07:08:00.966Z,28.57
2023-05-10T07:10:27.612Z,26.73
2023-05-10T07:12:54.283Z,27.70
2023-05-10T07:15:20.860Z,26.00
2023-05-10T07:17:47.419Z,26.07
2023-05-10T07:20:14.052Z,26.67
2023-05-10T07:22:40.861Z,22.97
2023-05-10T07:25:07.671Z,24.47
2023-05-10T07:27:34.291Z,25.10
2023-05-10T07:30:01.496Z,24.30
2023-05-10T07:32:28.707Z,26.20
2023-05-10T07:34:55.557Z,24.20
2023-05-10T07:37:22.239Z,23.63
2023-05-10T07:39:48.791Z,23.40
2023-05-10T07:42:15.539Z,23.90
2023-05-10T07:44:42.861Z,21.30
2023-05-10T07:47:09.572Z,24.37
2023-05-10T07:49:36.695Z,24.47
2023-05-10T07:52:04.113Z,24.60
2023-05-10T07:54:30.874Z,24.20
2023-05-10T07:56:57.541Z,25.70
2023-05-10T07:59:24.224Z,23.37
2023-05-10T08:01:50.911Z,21.00
2023-05-10T08:04:17.698Z,21.83
2023-05-10T08:06:48.797Z,19.10
2023-05-10T08:09:18.887Z,18.90
2023-05-10T08:11:46.882Z,22.07
2023-05-10T08:14:16.602Z,19.63
2023-05-10T08:16:43.398Z,18.67
2023-05-10T08:19:10.329Z,23.00
2023-05-10T08:21:37.245Z,22.03
2023-05-10T08:24:03.856Z,24.13
2023-05-10T08:26:30.471Z,26.03
2023-05-10T08:28:57.156Z,26.07
2023-05-10T08:31:23.797Z,28.27
2023-05-10T08:33:52.511Z,27.77
2023-05-10T08:36:22.764Z,24.00
2023-05-10T08:38:53.087Z,24.90
2023-05-10T08:41:24.855Z,22.73
2023-05-10T08:43:51.700Z,22.77
2023-05-10T08:46:20.552Z,22.30
2023-05-10T08:48:48.168Z,24.60
2023-05-10T08:51:15.890Z,23.43
2023-05-10T08:53:42.795Z,25.23
2023-05-10T08:56:09.707Z,23.03
2023-05-10T08:58:40.684Z,21.97
2023-05-10T09:01:07.469Z,21.73
2023-05-10T09:03:34.395Z,19.63
2023-05-10T09:06:02.072Z,19.23
2023-05-10T09:08:28.898Z,22.73
2023-05-10T09:10:55.837Z,20.57
2023-05-10T09:13:23.355Z,17.60
2023-05-10T09:15:52.290Z,17.23
2023-05-10T09:18:19.274Z,16.53
2023-05-10T09:20:46.014Z,16.50
2023-05-10T09:23:12.613Z,15.67
2023-05-10T09:25:39.832Z,17.03
2023-05-10T09:28:10.549Z,18.00
2023-05-10T09:30:37.191Z,18.00
2023-05-10T09:33:04.023Z,16.47
2023-05-10T09:35:31.533Z,16.40
2023-05-10T09:37:59.137Z,16.50
2023-05-10T09:40:26.889Z,16.47
2023-05-10T09:42:56.659Z,17.47
2023-05-10T09:45:36.140Z,14.70
2023-05-10T09:48:05.012Z,15.00
2023-05-10T09:50:32.092Z,14.97
2023-05-10T09:53:00.064Z,13.30
2023-05-10T09:55:26.880Z,14.03
2023-05-10T09:58:00.868Z,14.50
2023-05-10T10:00:28.188Z,13.50
2023-05-10T10:02:58.905Z,12.20
2023-05-10T10:05:29.199Z,10.07
2023-05-10T10:07:56.393Z,9.83
2023-05-10T10:10:23.213Z,7.97
2023-05-10T10:12:49.892Z,10.67
2023-05-10T10:15:17.099Z,9.20
2023-05-10T10:17:44.269Z,9.87
2023-05-10T10:20:12.328Z,8.97
2023-05-10T10:22:39.068Z,9.47
2023-05-10T10:25:06.203Z,10.03
2023-05-10T10:27:45.992Z,9.93
2023-05-10T10:30:12.628Z,10.87
2023-05-10T10:32:42.324Z,9.27
2023-05-10T10:35:09.375Z,9.67
2023-05-10T10:37:44.356Z,9.70
2023-05-10T10:40:24.025Z,9.03
2023-05-10T10:42:54.882Z,8.37
2023-05-10T10:45:22.186Z,7.50
2023-05-10T10:47:49.248Z,7.20
2023-05-10T10:50:17.343Z,7.73
2023-05-10T10:52:44.839Z,8.03
2023-05-10T10:55:11.547Z,7.03
2023-05-10T10:57:41.136Z,6.53
2023-05-10T11:00:25.090Z,7.33
2023-05-10T11:02:53.223Z,7.30
2023-05-10T11:05:38.879Z,7.37
2023-05-10T11:08:10.333Z,7.53
2023-05-10T11:10:37.090Z,7.27
2023-05-10T11:13:05.373Z,5.87
2023-05-10T11:15:32.204Z,7.40
2023-05-10T11:17:58.875Z,7.87
2023-05-10T11:20:34.007Z,8.10
2023-05-10T11:23:16.861Z,8.10
2023-05-10T11:25:46.874Z,8.20
2023-05-10T11:28:13.677Z,8.70
2023-05-10T11:30:40.949Z,6.77
2023-05-10T11:33:08.432Z,7.57
2023-05-10T11:35:41.753Z,8.70
2023-05-10T11:38:10.320Z,10.13
2023-05-10T11:40:37.480Z,8.60
2023-05-10T11:43:04.409Z,8.70
2023-05-10T11:45:36.249Z,8.80
2023-05-10T11:48:06.137Z,7.30
2023-05-10T11:50:33.625Z,7.57
2023-05-10T11:53:00.244Z,6.77
2023-05-10T11:55:26.953Z,7.23
2023-05-10T11:58:00.946Z,6.13
2023-05-10T12:00:27.538Z,5.60
2023-05-10T12:02:55.449Z,4.70
2023-05-10T12:05:22.559Z,6.27
2023-05-10T12:07:49.166Z,4.97
2023-05-10T12:10:16.496Z,5.70
2023-05-10T12:12:44.845Z,6.07
2023-05-10T12:15:17.823Z,4.90
2023-05-10T12:17:44.964Z,4.80
2023-05-10T12:20:18.795Z,3.93
2023-05-10T12:22:52.837Z,5.57
2023-05-10T12:25:20.060Z,4.43
2023-05-10T12:27:56.819Z,4.07
2023-05-10T12:30:24.573Z,4.47
2023-05-10T12:32:51.627Z,4.00
2023-05-10T12:35:22.007Z,4.37
2023-05-10T12:37:48.952Z,3.17
2023-05-10T12:40:15.862Z,3.77
2023-05-10T12:42:42.791Z,3.77
2023-05-10T12:45:09.710Z,5.63
2023-05-10T12:47:36.305Z,4.70
2023-05-10T12:50:03.680Z,4.53
2023-05-10T12:52:31.023Z,5.20
2023-05-10T12:54:57.679Z,3.63
2023-05-10T12:57:24.510Z,5.07
2023-05-10T12:59:51.474Z,4.47
2023-05-10T13:02:22.129Z,4.20
2023-05-10T13:04:50.949Z,4.20
2023-05-10T13:07:17.876Z,3.90
2023-05-10T13:09:44.640Z,4.10
2023-05-10T13:12:11.306Z,3.30
2023-05-10T13:14:38.028Z,3.57
2023-05-10T13:17:04.771Z,4.40
2023-05-10T13:19:31.463Z,4.10
2023-05-10T13:21:58.992Z,4.40
2023-05-10T13:24:25.635Z,3.83
2023-05-10T13:26:52.573Z,4.63
2023-05-10T13:29:20.145Z,5.40
2023-05-10T13:31:46.978Z,4.87
2023-05-10T13:34:13.997Z,3.50
2023-05-10T13:36:40.798Z,3.47
2023-05-10T13:39:07.624Z,4.37
2023-05-10T13:41:34.301Z,4.10
2023-05-10T13:44:01.118Z,3.40
2023-05-10T13:46:27.730Z,3.67
2023-05-10T13:48:54.360Z,2.70
2023-05-10T13:51:21.302Z,2.87
2023-05-10T13:53:48.245Z,2.70
2023-05-10T13:56:15.284Z,3.53
2023-05-10T13:58:42.317Z,2.87
2023-05-10T14:01:09.108Z,2.73
2023-05-10T14:03:35.861Z,2.10
2023-05-10T14:06:02.754Z,2.30
2023-05-10T14:08:29.468Z,2.87
2023-05-10T14:10:57.420Z,2.30
2023-05-10T14:13:24.701Z,2.80
2023-05-10T14:15:51.485Z,3.20
2023-05-10T14:18:18.646Z,3.00
2023-05-10T14:20:45.460Z,3.53
2023-05-10T14:23:12.693Z,3.30
2023-05-10T14:25:40.985Z,2.87
2023-05-10T14:28:07.610Z,3.17
2023-05-10T14:30:37.452Z,2.03
2023-05-10T14:33:04.245Z,3.07
2023-05-10T14:35:32.127Z,3.17
2023-05-10T14:37:59.601Z,2.70
2023-05-10T14:40:26.227Z,3.13
2023-05-10T14:42:53.902Z,3.50
2023-05-10T14:45:21.263Z,3.20
2023-05-10T14:47:47.944Z,3.70
2023-05-10T14:50:24.705Z,2.60
2023-05-10T14:53:01.387Z,2.37
2023-05-10T14:55:28.115Z,2.40
2023-05-10T14:57:55.346Z,2.27
2023-05-10T15:00:22.181Z,2.97
2023-05-10T15:02:49.476Z,3.43
2023-05-10T15:05:17.201Z,2.90
2023-05-10T15:07:44.865Z,3.23
2023-05-10T15:10:12.335Z,2.37
2023-05-10T15:12:39.819Z,1.70
2023-05-10T15:15:07.236Z,2.43
2023-05-10T15:17:34.314Z,2.90
2023-05-10T15:20:01.465Z,2.00
2023-05-10T15:22:29.289Z,2.40
2023-05-10T15:24:55.975Z,2.70
2023-05-10T15:27:22.601Z,3.10
2023-05-10T15:29:49.185Z,1.90
2023-05-10T15:32:15.711Z,1.73
2023-05-10T15:34:42.534Z,3.40
2023-05-10T15:37:09.165Z,2.73
2023-05-10T15:39:35.915Z,2.47
2023-05-10T15:42:03.981Z,2.30
2023-05-10T15:44:30.700Z,2.80
2023-05-10T15:46:57.713Z,2.50
2023-05-10T15:49:24.787Z,1.80
2023-05-10T15:51:51.606Z,1.30
2023-05-10T15:54:18.194Z,1.53
2023-05-10T15:56:45.921Z,1.70
2023-05-10T15:59:12.586Z,2.07
2023-05-10T16:01:39.252Z,2.17
2023-05-10T16:04:06.036Z,2.50
2023-05-10T16:06:32.763Z,2.53
2023-05-10T16:08:59.373Z,2.10
2023-05-10T16:11:26.049Z,3.77
2023-05-10T16:13:52.865Z,2.63
2023-05-10T16:16:19.695Z,2.33
2023-05-10T16:18:46.423Z,2.43
2023-05-10T16:21:13.232Z,2.17
2023-05-10T16:23:40.132Z,1.90
2023-05-10T16:26:06.739Z,2.57
2023-05-10T16:28:33.455Z,1.90
2023-05-10T16:31:00.224Z,1.87
2023-05-10T16:33:26.941Z,1.50
2023-05-10T16:35:53.488Z,1.50
2023-05-10T16:38:21.726Z,1.50
2023-05-10T16:40:48.478Z,1.63
2023-05-10T16:43:15.035Z,1.73
2023-05-10T16:45:42.357Z,1.50
2023-05-10T16:48:08.944Z,1.00
2023-05-10T16:50:35.504Z,1.13
2023-05-10T16:53:02.083Z,1.70
2023-05-10T16:55:28.717Z,1.70
2023-05-10T16:57:59.746Z,1.83
2023-05-10T17:00:26.776Z,1.40
2023-05-10T17:02:54.650Z,1.47
2023-05-10T17:05:21.881Z,1.20
2023-05-10T17:07:49.332Z,1.50
2023-05-10T17:10:16.352Z,1.20
2023-05-10T17:12:43.343Z,2.20
2023-05-10T17:15:10.483Z,2.40
2023-05-10T17:21:43.482Z,3.53
2023-05-10T17:24:10.509Z,2.17
2023-05-10T17:26:37.245Z,1.40
2023-05-10T17:29:03.802Z,1.70
2023-05-10T17:31:30.419Z,1.40
2023-05-10T17:33:56.995Z,1.10
2023-05-10T17:36:23.515Z,1.30
2023-05-10T17:38:50.507Z,1.50
2023-05-10T17:41:17.413Z,1.00
2023-05-10T17:43:43.970Z,1.40
2023-05-10T17:46:11.222Z,1.27
2023-05-10T17:48:38.141Z,1.27
2023-05-10T17:51:04.801Z,1.27
2023-05-10T17:53:31.554Z,1.30
2023-05-10T17:55:59.017Z,1.13
2023-05-10T17:58:25.568Z,1.20
2023-05-10T18:00:52.546Z,1.23
2023-05-10T18:03:20.077Z,0.97
2023-05-10T18:05:47.288Z,1.40
2023-05-10T18:08:14.197Z,1.20
2023-05-10T18:10:41.690Z,1.30
2023-05-10T18:13:08.878Z,1.30
2023-05-10T18:15:35.768Z,1.50
2023-05-10T18:18:03.216Z,2.10
2023-05-10T18:20:30.147Z,1.60
2023-05-10T18:22:57.908Z,2.10
2023-05-10T18:25:25.046Z,1.93
2023-05-10T18:27:52.014Z,1.80
2023-05-10T18:30:19.080Z,2.50
2023-05-10T18:32:46.648Z,1.67
2023-05-10T18:35:13.253Z,1.87
2023-05-10T18:37:39.956Z,1.87
2023-05-10T18:40:09.731Z,1.90
2023-05-10T18:42:36.822Z,1.50
2023-05-10T18:45:03.890Z,2.33
2023-05-10T18:47:31.066Z,3.60
2023-05-10T18:49:57.904Z,2.60
2023-05-10T18:52:25.874Z,2.50
2023-05-10T18:54:52.947Z,2.70
2023-05-10T18:57:21.264Z,3.73
2023-05-10T18:59:48.674Z,2.53
2023-05-10T19:02:15.478Z,2.63
2023-05-10T19:04:42.693Z,3.37
2023-05-10T19:07:09.624Z,3.87
2023-05-10T19:09:36.543Z,3.93
2023-05-10T19:12:03.287Z,3.00
2023-05-10T19:14:29.925Z,2.60
2023-05-10T19:16:56.547Z,4.10
2023-05-10T19:19:24.856Z,4.13
2023-05-10T19:21:51.558Z,4.03
2023-05-10T19:24:19.948Z,5.00
2023-05-10T19:26:48.543Z,8.57
2023-05-10T19:29:15.285Z,11.90
2023-05-10T19:31:41.958Z,13.03
2023-05-10T19:34:08.569Z,14.00
2023-05-10T19:36:35.403Z,16.00
2023-05-10T19:39:02.366Z,17.07
2023-05-10T19:41:29.098Z,16.77
2023-05-10T19:43:55.636Z,21.50
2023-05-10T19:46:22.371Z,22.70
2023-05-10T19:48:50.163Z,22.37
2023-05-10T19:51:16.790Z,24.80
2023-05-10T19:53:44.898Z,27.40
2023-05-10T19:56:12.814Z,23.90
2023-05-10T19:58:39.796Z,25.17
2023-05-10T20:01:07.906Z,26.40
2023-05-10T20:03:35.463Z,30.10
2023-05-10T20:06:02.274Z,27.47
2023-05-10T20:08:29.249Z,31.90
2023-05-10T20:10:59.000Z,32.07
2023-05-10T20:13:25.866Z,31.40
2023-05-10T20:16:02.505Z,32.07
2023-05-10T20:18:29.332Z,30.17
2023-05-10T20:20:57.637Z,34.10
2023-05-10T20:23:24.294Z,32.43
2023-05-10T20:25:51.324Z,30.13
2023-05-10T20:28:20.763Z,28.07
2023-05-10T20:30:47.422Z,27.07
2023-05-10T20:33:15.640Z,26.67
2023-05-10T20:35:42.257Z,24.50
2023-05-10T20:38:08.859Z,21.93
2023-05-10T20:40:36.575Z,18.37
2023-05-10T20:43:03.575Z,17.73
2023-05-10T20:45:30.156Z,16.33
2023-05-10T20:47:57.133Z,15.30
2023-05-10T20:50:23.884Z,12.60
2023-05-10T20:52:52.192Z,12.13
2023-05-10T20:55:19.157Z,10.43
2023-05-10T20:57:46.959Z,10.07
2023-05-10T21:00:14.116Z,10.70
2023-05-10T21:02:43.230Z,11.13
2023-05-10T21:05:09.978Z,8.57
2023-05-10T21:07:36.702Z,11.93
2023-05-10T21:10:03.324Z,9.93
2023-05-10T21:12:29.993Z,11.30
2023-05-10T21:14:56.445Z,12.73
2023-05-10T21:17:23.116Z,13.13
2023-05-10T21:19:50.609Z,10.30
2023-05-10T21:22:17.194Z,11.50
2023-05-10T21:24:43.952Z,11.27
2023-05-10T21:27:10.772Z,8.87
2023-05-10T21:29:37.326Z,8.30
2023-05-10T21:32:03.849Z,7.20
2023-05-10T21:34:30.996Z,9.50
2023-05-10T21:36:58.516Z,11.03
2023-05-10T21:39:24.987Z,10.83
2023-05-10T21:41:51.602Z,10.27
2023-05-10T21:44:18.141Z,10.90
2023-05-10T21:46:45.235Z,12.47
2023-05-10T21:49:11.718Z,15.50
2023-05-10T21:51:38.234Z,13.73
2023-05-10T21:54:04.853Z,18.03
2023-05-10T21:56:31.509Z,17.47
2023-05-10T21:58:58.173Z,18.57
2023-05-10T22:01:25.064Z,22.00
2023-05-10T22:03:51.611Z,23.40
2023-05-10T22:06:18.214Z,22.97
2023-05-10T22:08:44.806Z,23.90
2023-05-10T22:11:11.258Z,25.23
2023-05-10T22:13:37.711Z,23.97
2023-05-10T22:16:04.298Z,25.33
2023-05-10T22:18:30.883Z,24.83
2023-05-10T22:20:57.626Z,24.80
2023-05-10T22:23:24.126Z,26.20
2023-05-10T22:25:50.661Z,24.60
2023-05-10T22:28:17.289Z,22.57
2023-05-10T22:30:43.949Z,20.80
2023-05-10T22:33:10.468Z,20.37
2023-05-10T22:35:36.925Z,21.03
2023-05-10T22:38:04.123Z,21.67
2023-05-10T22:40:30.671Z,20.50
2023-05-10T22:42:57.300Z,26.73
2023-05-10T22:45:23.792Z,33.67
2023-05-10T22:47:50.298Z,41.40
2023-05-10T22:50:17.198Z,32.57
2023-05-10T22:52:43.923Z,25.07
2023-05-10T22:55:10.463Z,24.07
2023-05-10T22:57:37.046Z,25.07
2023-05-10T23:00:04.902Z,25.00
2023-05-10T23:02:32.032Z,23.53
2023-05-10T23:04:58.784Z,21.37
2023-05-10T23:07:25.519Z,23.10
2023-05-10T23:09:52.520Z,22.33
2023-05-10T23:12:19.077Z,22.53
2023-05-10T23:14:46.528Z,20.70
2023-05-10T23:17:13.562Z,20.27
2023-05-10T23:19:40.093Z,20.30
2023-05-10T23:22:06.741Z,22.70
2023-05-10T23:24:33.291Z,19.50
2023-05-10T23:26:59.833Z,21.00
2023-05-10T23:29:26.660Z,20.30
2023-05-10T23:31:53.347Z,16.00
2023-05-10T23:34:19.926Z,13.33
2023-05-10T23:36:46.481Z,15.87
2023-05-10T23:39:13.466Z,11.93
2023-05-10T23:41:39.969Z,8.40
2023-05-10T23:44:06.584Z,9.10
2023-05-10T23:46:33.046Z,7.70
2023-05-10T23:48:59.588Z,8.83
2023-05-10T23:51:26.100Z,7.30
2023-05-10T23:53:52.680Z,8.03
2023-05-10T23:56:19.262Z,8.57
2023-05-10T23:58:46.405Z,8.60
